sensor_id;sensor_type;location;lat;lon;timestamp;P1;durP1;ratioP1;P2;durP2;ratioP2
52534;SDS011;38443;53.164;5.802;2024-02-28T00:00:33;36.72;;;14.30;;
52534;SDS011;38443;53.164;5.802;2024-02-28T00:05:23;35.55;;;15.68;;
52534;SDS011;38443;53.164;5.802;2024-02-28T00:10:13;33.73;;;15.20;;
52534;SDS011;38443;53.164;5.802;2024-02-28T00:15:05;39.42;;;16.27;;
52534;SDS011;38443;53.164;5.802;2024-02-28T00:17:35;33.83;;;16.45;;
52534;SDS011;38443;53.164;5.802;2024-02-28T00:22:25;40.15;;;15.98;;
52534;SDS011;38443;53.164;5.802;2024-02-28T00:27:16;41.67;;;17.25;;
52534;SDS011;38443;53.164;5.802;2024-02-28T00:32:06;41.08;;;17.63;;
52534;SDS011;38443;53.164;5.802;2024-02-28T00:36:56;32.53;;;14.75;;
52534;SDS011;38443;53.164;5.802;2024-02-28T00:41:47;36.13;;;14.87;;
52534;SDS011;38443;53.164;5.802;2024-02-28T00:46:39;46.83;;;17.53;;
52534;SDS011;38443;53.164;5.802;2024-02-28T00:49:04;50.60;;;19.23;;
52534;SDS011;38443;53.164;5.802;2024-02-28T00:53:54;37.08;;;17.02;;
52534;SDS011;38443;53.164;5.802;2024-02-28T00:58:44;37.15;;;16.48;;
52534;SDS011;38443;53.164;5.802;2024-02-28T01:03:35;38.80;;;16.52;;
52534;SDS011;38443;53.164;5.802;2024-02-28T01:08:26;39.30;;;17.13;;
52534;SDS011;38443;53.164;5.802;2024-02-28T01:13:16;47.92;;;16.88;;
52534;SDS011;38443;53.164;5.802;2024-02-28T01:18:07;41.65;;;18.20;;
52534;SDS011;38443;53.164;5.802;2024-02-28T01:22:57;42.47;;;17.05;;
52534;SDS011;38443;53.164;5.802;2024-02-28T01:27:47;37.78;;;15.65;;
52534;SDS011;38443;53.164;5.802;2024-02-28T01:32:38;45.50;;;17.95;;
52534;SDS011;38443;53.164;5.802;2024-02-28T01:37:28;40.97;;;17.93;;
52534;SDS011;38443;53.164;5.802;2024-02-28T01:42:18;43.07;;;17.33;;
52534;SDS011;38443;53.164;5.802;2024-02-28T01:47:10;43.78;;;17.92;;
52534;SDS011;38443;53.164;5.802;2024-02-28T01:52:00;41.28;;;16.33;;
52534;SDS011;38443;53.164;5.802;2024-02-28T01:56:51;44.83;;;18.17;;
52534;SDS011;38443;53.164;5.802;2024-02-28T02:01:41;41.70;;;18.13;;
52534;SDS011;38443;53.164;5.802;2024-02-28T02:06:32;42.23;;;17.97;;
52534;SDS011;38443;53.164;5.802;2024-02-28T02:11:22;41.65;;;17.98;;
52534;SDS011;38443;53.164;5.802;2024-02-28T02:16:14;38.50;;;17.02;;
52534;SDS011;38443;53.164;5.802;2024-02-28T02:21:04;32.80;;;15.77;;
52534;SDS011;38443;53.164;5.802;2024-02-28T02:23:31;40.58;;;17.50;;
52534;SDS011;38443;53.164;5.802;2024-02-28T02:28:22;40.30;;;17.40;;
52534;SDS011;38443;53.164;5.802;2024-02-28T02:33:12;40.47;;;18.48;;
52534;SDS011;38443;53.164;5.802;2024-02-28T02:38:03;38.20;;;17.23;;
52534;SDS011;38443;53.164;5.802;2024-02-28T02:42:53;41.15;;;20.10;;
52534;SDS011;38443;53.164;5.802;2024-02-28T02:47:43;47.90;;;19.63;;
52534;SDS011;38443;53.164;5.802;2024-02-28T02:52:34;41.58;;;17.17;;
52534;SDS011;38443;53.164;5.802;2024-02-28T02:57:24;41.60;;;17.42;;
52534;SDS011;38443;53.164;5.802;2024-02-28T03:02:14;40.75;;;19.02;;
52534;SDS011;38443;53.164;5.802;2024-02-28T03:07:05;43.38;;;17.75;;
52534;SDS011;38443;53.164;5.802;2024-02-28T03:11:55;52.65;;;21.30;;
52534;SDS011;38443;53.164;5.802;2024-02-28T03:16:47;43.95;;;19.05;;
52534;SDS011;38443;53.164;5.802;2024-02-28T03:19:13;35.47;;;17.88;;
52534;SDS011;38443;53.164;5.802;2024-02-28T03:21:39;40.45;;;17.25;;
52534;SDS011;38443;53.164;5.802;2024-02-28T03:26:30;47.25;;;19.75;;
52534;SDS011;38443;53.164;5.802;2024-02-28T03:31:20;42.70;;;18.27;;
52534;SDS011;38443;53.164;5.802;2024-02-28T03:36:12;41.53;;;19.42;;
52534;SDS011;38443;53.164;5.802;2024-02-28T03:41:02;40.83;;;19.65;;
52534;SDS011;38443;53.164;5.802;2024-02-28T03:45:53;45.00;;;18.42;;
52534;SDS011;38443;53.164;5.802;2024-02-28T03:50:43;41.53;;;18.00;;
52534;SDS011;38443;53.164;5.802;2024-02-28T03:55:33;43.35;;;18.77;;
52534;SDS011;38443;53.164;5.802;2024-02-28T04:00:24;41.78;;;17.10;;
52534;SDS011;38443;53.164;5.802;2024-02-28T04:02:51;40.85;;;17.33;;
52534;SDS011;38443;53.164;5.802;2024-02-28T04:07:42;48.88;;;18.42;;
52534;SDS011;38443;53.164;5.802;2024-02-28T04:12:32;44.07;;;17.93;;
52534;SDS011;38443;53.164;5.802;2024-02-28T04:17:23;50.83;;;20.63;;
52534;SDS011;38443;53.164;5.802;2024-02-28T04:22:13;44.37;;;18.37;;
52534;SDS011;38443;53.164;5.802;2024-02-28T04:27:03;43.97;;;17.80;;
52534;SDS011;38443;53.164;5.802;2024-02-28T04:29:30;43.72;;;18.77;;
52534;SDS011;38443;53.164;5.802;2024-02-28T04:34:21;42.80;;;17.10;;
52534;SDS011;38443;53.164;5.802;2024-02-28T04:39:11;52.50;;;20.17;;
52534;SDS011;38443;53.164;5.802;2024-02-28T04:44:02;42.70;;;18.77;;
52534;SDS011;38443;53.164;5.802;2024-02-28T04:48:53;46.17;;;19.55;;
52534;SDS011;38443;53.164;5.802;2024-02-28T04:53:43;44.80;;;21.17;;
52534;SDS011;38443;53.164;5.802;2024-02-28T04:58:33;46.65;;;21.55;;
52534;SDS011;38443;53.164;5.802;2024-02-28T05:03:24;49.30;;;21.58;;
52534;SDS011;38443;53.164;5.802;2024-02-28T05:08:15;45.55;;;18.95;;
52534;SDS011;38443;53.164;5.802;2024-02-28T05:13:05;49.50;;;19.95;;
52534;SDS011;38443;53.164;5.802;2024-02-28T05:17:55;46.30;;;20.42;;
52534;SDS011;38443;53.164;5.802;2024-02-28T05:22:46;42.92;;;18.20;;
52534;SDS011;38443;53.164;5.802;2024-02-28T05:27:36;43.47;;;21.05;;
52534;SDS011;38443;53.164;5.802;2024-02-28T05:32:27;47.50;;;19.93;;
52534;SDS011;38443;53.164;5.802;2024-02-28T05:37:17;51.58;;;21.88;;
52534;SDS011;38443;53.164;5.802;2024-02-28T05:42:08;45.67;;;19.77;;
52534;SDS011;38443;53.164;5.802;2024-02-28T05:44:35;41.05;;;19.13;;
52534;SDS011;38443;53.164;5.802;2024-02-28T05:49:25;45.42;;;19.52;;
52534;SDS011;38443;53.164;5.802;2024-02-28T05:54:16;46.08;;;21.67;;
52534;SDS011;38443;53.164;5.802;2024-02-28T05:59:06;46.00;;;19.95;;
52534;SDS011;38443;53.164;5.802;2024-02-28T06:03:57;45.67;;;21.17;;
52534;SDS011;38443;53.164;5.802;2024-02-28T06:08:47;60.78;;;22.83;;
52534;SDS011;38443;53.164;5.802;2024-02-28T06:13:39;46.83;;;20.85;;
52534;SDS011;38443;53.164;5.802;2024-02-28T06:16:05;54.67;;;21.52;;
52534;SDS011;38443;53.164;5.802;2024-02-28T06:20:58;52.35;;;22.30;;
52534;SDS011;38443;53.164;5.802;2024-02-28T06:23:24;44.25;;;20.02;;
52534;SDS011;38443;53.164;5.802;2024-02-28T06:28:14;49.27;;;23.77;;
52534;SDS011;38443;53.164;5.802;2024-02-28T06:30:40;55.72;;;25.38;;
52534;SDS011;38443;53.164;5.802;2024-02-28T06:35:30;46.23;;;20.53;;
52534;SDS011;38443;53.164;5.802;2024-02-28T06:40:21;48.25;;;22.83;;
52534;SDS011;38443;53.164;5.802;2024-02-28T06:45:12;53.08;;;22.85;;
52534;SDS011;38443;53.164;5.802;2024-02-28T06:50:03;55.45;;;23.48;;
52534;SDS011;38443;53.164;5.802;2024-02-28T06:54:53;50.72;;;21.20;;
52534;SDS011;38443;53.164;5.802;2024-02-28T06:59:43;45.73;;;22.23;;
52534;SDS011;38443;53.164;5.802;2024-02-28T07:04:34;47.78;;;20.88;;
52534;SDS011;38443;53.164;5.802;2024-02-28T07:09:25;45.45;;;21.67;;
52534;SDS011;38443;53.164;5.802;2024-02-28T07:11:54;45.13;;;21.48;;
52534;SDS011;38443;53.164;5.802;2024-02-28T07:16:45;41.72;;;19.67;;
52534;SDS011;38443;53.164;5.802;2024-02-28T07:21:35;53.58;;;21.75;;
52534;SDS011;38443;53.164;5.802;2024-02-28T07:24:01;52.20;;;22.42;;
52534;SDS011;38443;53.164;5.802;2024-02-28T07:28:52;43.10;;;20.20;;
52534;SDS011;38443;53.164;5.802;2024-02-28T07:33:43;45.72;;;20.40;;
52534;SDS011;38443;53.164;5.802;2024-02-28T07:38:34;47.90;;;19.63;;
52534;SDS011;38443;53.164;5.802;2024-02-28T07:43:24;41.40;;;22.05;;
52534;SDS011;38443;53.164;5.802;2024-02-28T07:48:14;49.70;;;20.70;;
52534;SDS011;38443;53.164;5.802;2024-02-28T07:50:42;51.05;;;23.65;;
52534;SDS011;38443;53.164;5.802;2024-02-28T07:55:32;51.13;;;21.63;;
52534;SDS011;38443;53.164;5.802;2024-02-28T08:00:23;43.05;;;21.75;;
52534;SDS011;38443;53.164;5.802;2024-02-28T08:02:50;49.83;;;22.75;;
52534;SDS011;38443;53.164;5.802;2024-02-28T08:07:41;54.97;;;21.83;;
52534;SDS011;38443;53.164;5.802;2024-02-28T08:12:31;52.10;;;22.27;;
52534;SDS011;38443;53.164;5.802;2024-02-28T08:14:57;56.40;;;23.27;;
52534;SDS011;38443;53.164;5.802;2024-02-28T08:19:47;54.63;;;21.50;;
52534;SDS011;38443;53.164;5.802;2024-02-28T08:24:38;51.20;;;22.25;;
52534;SDS011;38443;53.164;5.802;2024-02-28T08:29:28;52.60;;;22.23;;
52534;SDS011;38443;53.164;5.802;2024-02-28T08:34:19;50.83;;;22.00;;
52534;SDS011;38443;53.164;5.802;2024-02-28T08:39:09;55.30;;;21.43;;
52534;SDS011;38443;53.164;5.802;2024-02-28T08:44:00;48.40;;;20.37;;
52534;SDS011;38443;53.164;5.802;2024-02-28T08:48:50;48.67;;;22.65;;
52534;SDS011;38443;53.164;5.802;2024-02-28T08:53:40;52.93;;;23.73;;
52534;SDS011;38443;53.164;5.802;2024-02-28T08:56:06;57.70;;;23.37;;
52534;SDS011;38443;53.164;5.802;2024-02-28T09:00:56;58.08;;;22.75;;
52534;SDS011;38443;53.164;5.802;2024-02-28T09:05:47;53.53;;;22.92;;
52534;SDS011;38443;53.164;5.802;2024-02-28T09:10:38;49.20;;;24.27;;
52534;SDS011;38443;53.164;5.802;2024-02-28T09:15:28;49.85;;;24.02;;
52534;SDS011;38443;53.164;5.802;2024-02-28T09:20:18;57.57;;;23.57;;
52534;SDS011;38443;53.164;5.802;2024-02-28T09:22:44;62.80;;;26.43;;
52534;SDS011;38443;53.164;5.802;2024-02-28T09:25:09;60.03;;;26.63;;
52534;SDS011;38443;53.164;5.802;2024-02-28T09:27:35;65.22;;;27.48;;
52534;SDS011;38443;53.164;5.802;2024-02-28T09:30:01;59.40;;;25.70;;
52534;SDS011;38443;53.164;5.802;2024-02-28T09:34:51;59.55;;;23.60;;
52534;SDS011;38443;53.164;5.802;2024-02-28T09:39:47;63.63;;;25.33;;
52534;SDS011;38443;53.164;5.802;2024-02-28T09:44:40;56.28;;;25.70;;
52534;SDS011;38443;53.164;5.802;2024-02-28T09:47:07;63.38;;;25.55;;
52534;SDS011;38443;53.164;5.802;2024-02-28T09:51:58;61.45;;;24.35;;
52534;SDS011;38443;53.164;5.802;2024-02-28T09:56:48;55.47;;;25.17;;
52534;SDS011;38443;53.164;5.802;2024-02-28T10:01:42;53.20;;;25.37;;
52534;SDS011;38443;53.164;5.802;2024-02-28T10:04:11;59.33;;;22.77;;
52534;SDS011;38443;53.164;5.802;2024-02-28T10:06:38;50.17;;;22.15;;
52534;SDS011;38443;53.164;5.802;2024-02-28T10:11:30;54.42;;;22.55;;
52534;SDS011;38443;53.164;5.802;2024-02-28T10:13:55;61.57;;;22.77;;
52534;SDS011;38443;53.164;5.802;2024-02-28T10:18:45;54.50;;;22.05;;
52534;SDS011;38443;53.164;5.802;2024-02-28T10:23:37;52.63;;;21.80;;
52534;SDS011;38443;53.164;5.802;2024-02-28T10:26:03;47.03;;;22.83;;
52534;SDS011;38443;53.164;5.802;2024-02-28T10:30:53;54.67;;;22.33;;
52534;SDS011;38443;53.164;5.802;2024-02-28T10:35:44;48.35;;;22.85;;
52534;SDS011;38443;53.164;5.802;2024-02-28T10:40:35;40.20;;;18.52;;
52534;SDS011;38443;53.164;5.802;2024-02-28T10:45:25;40.95;;;18.58;;
52534;SDS011;38443;53.164;5.802;2024-02-28T10:47:54;39.63;;;19.05;;
52534;SDS011;38443;53.164;5.802;2024-02-28T10:52:45;46.88;;;19.73;;
52534;SDS011;38443;53.164;5.802;2024-02-28T10:55:11;50.95;;;22.35;;
52534;SDS011;38443;53.164;5.802;2024-02-28T10:57:38;44.65;;;20.40;;
52534;SDS011;38443;53.164;5.802;2024-02-28T11:02:32;40.63;;;19.25;;
52534;SDS011;38443;53.164;5.802;2024-02-28T11:07:26;42.85;;;20.08;;
52534;SDS011;38443;53.164;5.802;2024-02-28T11:12:26;46.97;;;21.15;;
52534;SDS011;38443;53.164;5.802;2024-02-28T11:14:57;47.78;;;21.45;;
52534;SDS011;38443;53.164;5.802;2024-02-28T11:17:26;43.70;;;19.48;;
52534;SDS011;38443;53.164;5.802;2024-02-28T11:19:51;40.03;;;20.20;;
52534;SDS011;38443;53.164;5.802;2024-02-28T11:24:42;46.53;;;20.87;;
52534;SDS011;38443;53.164;5.802;2024-02-28T11:27:11;47.40;;;20.45;;
52534;SDS011;38443;53.164;5.802;2024-02-28T11:29:38;43.58;;;19.27;;
52534;SDS011;38443;53.164;5.802;2024-02-28T11:34:29;41.83;;;19.08;;
52534;SDS011;38443;53.164;5.802;2024-02-28T11:39:20;41.50;;;19.77;;
52534;SDS011;38443;53.164;5.802;2024-02-28T11:41:46;46.03;;;21.15;;
52534;SDS011;38443;53.164;5.802;2024-02-28T11:44:12;44.35;;;20.73;;
52534;SDS011;38443;53.164;5.802;2024-02-28T11:46:42;44.08;;;20.85;;
52534;SDS011;38443;53.164;5.802;2024-02-28T11:49:07;47.03;;;19.13;;
52534;SDS011;38443;53.164;5.802;2024-02-28T11:54:00;35.65;;;18.83;;
52534;SDS011;38443;53.164;5.802;2024-02-28T11:56:25;50.03;;;22.25;;
52534;SDS011;38443;53.164;5.802;2024-02-28T12:01:16;43.28;;;18.15;;
52534;SDS011;38443;53.164;5.802;2024-02-28T12:03:44;45.38;;;19.17;;
52534;SDS011;38443;53.164;5.802;2024-02-28T12:06:09;41.53;;;19.52;;
52534;SDS011;38443;53.164;5.802;2024-02-28T12:08:36;46.40;;;19.30;;
52534;SDS011;38443;53.164;5.802;2024-02-28T12:13:27;44.70;;;19.13;;
52534;SDS011;38443;53.164;5.802;2024-02-28T12:18:18;41.65;;;18.58;;
52534;SDS011;38443;53.164;5.802;2024-02-28T12:23:10;42.30;;;18.98;;
52534;SDS011;38443;53.164;5.802;2024-02-28T12:28:01;40.45;;;18.30;;
52534;SDS011;38443;53.164;5.802;2024-02-28T12:30:26;34.33;;;17.92;;
52534;SDS011;38443;53.164;5.802;2024-02-28T12:35:17;41.35;;;18.38;;
52534;SDS011;38443;53.164;5.802;2024-02-28T12:40:07;43.07;;;19.13;;
52534;SDS011;38443;53.164;5.802;2024-02-28T12:42:34;39.15;;;18.20;;
52534;SDS011;38443;53.164;5.802;2024-02-28T12:44:59;38.95;;;18.98;;
52534;SDS011;38443;53.164;5.802;2024-02-28T12:49:50;38.00;;;19.58;;
52534;SDS011;38443;53.164;5.802;2024-02-28T12:52:15;39.53;;;20.00;;
52534;SDS011;38443;53.164;5.802;2024-02-28T12:54:40;34.50;;;18.90;;
52534;SDS011;38443;53.164;5.802;2024-02-28T12:59:31;40.45;;;18.58;;
52534;SDS011;38443;53.164;5.802;2024-02-28T13:01:57;39.38;;;18.55;;
52534;SDS011;38443;53.164;5.802;2024-02-28T13:06:48;35.05;;;17.90;;
52534;SDS011;38443;53.164;5.802;2024-02-28T13:09:13;41.13;;;17.93;;
52534;SDS011;38443;53.164;5.802;2024-02-28T13:11:38;38.20;;;17.67;;
52534;SDS011;38443;53.164;5.802;2024-02-28T13:14:04;32.63;;;16.98;;
52534;SDS011;38443;53.164;5.802;2024-02-28T13:16:30;35.50;;;17.65;;
52534;SDS011;38443;53.164;5.802;2024-02-28T13:18:55;30.57;;;16.47;;
52534;SDS011;38443;53.164;5.802;2024-02-28T13:23:45;30.00;;;16.73;;
52534;SDS011;38443;53.164;5.802;2024-02-28T13:28:42;34.85;;;18.08;;
52534;SDS011;38443;53.164;5.802;2024-02-28T13:33:34;29.27;;;18.25;;
52534;SDS011;38443;53.164;5.802;2024-02-28T13:36:01;30.15;;;15.90;;
52534;SDS011;38443;53.164;5.802;2024-02-28T13:40:52;29.45;;;16.15;;
52534;SDS011;38443;53.164;5.802;2024-02-28T13:43:18;33.13;;;16.33;;
52534;SDS011;38443;53.164;5.802;2024-02-28T13:45:47;29.80;;;16.20;;
52534;SDS011;38443;53.164;5.802;2024-02-28T13:48:20;29.50;;;15.93;;
52534;SDS011;38443;53.164;5.802;2024-02-28T13:50:46;31.70;;;15.80;;
52534;SDS011;38443;53.164;5.802;2024-02-28T13:55:37;30.75;;;15.65;;
52534;SDS011;38443;53.164;5.802;2024-02-28T14:00:28;28.45;;;15.68;;
52534;SDS011;38443;53.164;5.802;2024-02-28T14:02:53;34.60;;;17.50;;
52534;SDS011;38443;53.164;5.802;2024-02-28T14:07:44;31.35;;;17.35;;
52534;SDS011;38443;53.164;5.802;2024-02-28T14:10:09;30.30;;;16.63;;
52534;SDS011;38443;53.164;5.802;2024-02-28T14:12:36;27.42;;;15.43;;
52534;SDS011;38443;53.164;5.802;2024-02-28T14:17:26;30.70;;;16.50;;
52534;SDS011;38443;53.164;5.802;2024-02-28T14:19:51;23.40;;;15.37;;
52534;SDS011;38443;53.164;5.802;2024-02-28T14:22:17;23.90;;;16.13;;
52534;SDS011;38443;53.164;5.802;2024-02-28T14:24:42;21.80;;;14.93;;
52534;SDS011;38443;53.164;5.802;2024-02-28T14:27:07;26.57;;;14.60;;
52534;SDS011;38443;53.164;5.802;2024-02-28T14:29:32;24.03;;;15.20;;
52534;SDS011;38443;53.164;5.802;2024-02-28T14:31:57;30.00;;;14.83;;
52534;SDS011;38443;53.164;5.802;2024-02-28T14:34:23;25.30;;;15.57;;
52534;SDS011;38443;53.164;5.802;2024-02-28T14:39:14;27.83;;;15.35;;
52534;SDS011;38443;53.164;5.802;2024-02-28T14:41:43;25.70;;;15.57;;
52534;SDS011;38443;53.164;5.802;2024-02-28T14:44:11;30.02;;;14.07;;
52534;SDS011;38443;53.164;5.802;2024-02-28T14:49:02;24.60;;;14.50;;
52534;SDS011;38443;53.164;5.802;2024-02-28T14:51:28;23.20;;;15.73;;
52534;SDS011;38443;53.164;5.802;2024-02-28T14:53:55;22.50;;;14.93;;
52534;SDS011;38443;53.164;5.802;2024-02-28T14:58:45;21.83;;;13.87;;
52534;SDS011;38443;53.164;5.802;2024-02-28T15:01:10;21.73;;;13.83;;
52534;SDS011;38443;53.164;5.802;2024-02-28T15:03:35;24.10;;;13.88;;
52534;SDS011;38443;53.164;5.802;2024-02-28T15:06:01;22.67;;;13.13;;
52534;SDS011;38443;53.164;5.802;2024-02-28T15:08:26;23.73;;;13.33;;
52534;SDS011;38443;53.164;5.802;2024-02-28T15:13:17;24.38;;;12.75;;
52534;SDS011;38443;53.164;5.802;2024-02-28T15:18:08;22.90;;;14.05;;
52534;SDS011;38443;53.164;5.802;2024-02-28T15:22:59;20.98;;;12.57;;
52534;SDS011;38443;53.164;5.802;2024-02-28T15:25:24;20.80;;;13.18;;
52534;SDS011;38443;53.164;5.802;2024-02-28T15:27:49;25.15;;;15.05;;
52534;SDS011;38443;53.164;5.802;2024-02-28T15:30:15;23.73;;;13.27;;
52534;SDS011;38443;53.164;5.802;2024-02-28T15:32:40;23.58;;;13.90;;
52534;SDS011;38443;53.164;5.802;2024-02-28T15:35:07;24.35;;;12.70;;
52534;SDS011;38443;53.164;5.802;2024-02-28T15:37:32;22.42;;;12.85;;
52534;SDS011;38443;53.164;5.802;2024-02-28T15:39:58;24.85;;;14.18;;
52534;SDS011;38443;53.164;5.802;2024-02-28T15:44:49;27.73;;;12.77;;
52534;SDS011;38443;53.164;5.802;2024-02-28T15:47:14;23.98;;;12.45;;
52534;SDS011;38443;53.164;5.802;2024-02-28T15:49:40;20.67;;;13.63;;
52534;SDS011;38443;53.164;5.802;2024-02-28T15:54:30;24.42;;;15.23;;
52534;SDS011;38443;53.164;5.802;2024-02-28T15:56:56;24.90;;;14.10;;
52534;SDS011;38443;53.164;5.802;2024-02-28T15:59:24;21.33;;;14.60;;
52534;SDS011;38443;53.164;5.802;2024-02-28T16:01:51;27.30;;;15.70;;
52534;SDS011;38443;53.164;5.802;2024-02-28T16:06:41;29.42;;;16.05;;
52534;SDS011;38443;53.164;5.802;2024-02-28T16:09:07;26.70;;;16.05;;
52534;SDS011;38443;53.164;5.802;2024-02-28T16:11:34;28.73;;;17.05;;
52534;SDS011;38443;53.164;5.802;2024-02-28T16:16:25;28.10;;;16.77;;
52534;SDS011;38443;53.164;5.802;2024-02-28T16:21:17;27.98;;;16.70;;
52534;SDS011;38443;53.164;5.802;2024-02-28T16:23:43;28.65;;;16.35;;
52534;SDS011;38443;53.164;5.802;2024-02-28T16:28:34;30.48;;;16.80;;
52534;SDS011;38443;53.164;5.802;2024-02-28T16:31:00;34.83;;;17.27;;
52534;SDS011;38443;53.164;5.802;2024-02-28T16:35:50;32.27;;;17.57;;
52534;SDS011;38443;53.164;5.802;2024-02-28T16:38:16;32.15;;;18.40;;
52534;SDS011;38443;53.164;5.802;2024-02-28T16:40:41;34.28;;;19.88;;
52534;SDS011;38443;53.164;5.802;2024-02-28T16:43:06;28.10;;;16.42;;
52534;SDS011;38443;53.164;5.802;2024-02-28T16:45:31;32.13;;;17.67;;
52534;SDS011;38443;53.164;5.802;2024-02-28T16:50:22;31.73;;;16.88;;
52534;SDS011;38443;53.164;5.802;2024-02-28T16:55:12;31.58;;;17.25;;
52534;SDS011;38443;53.164;5.802;2024-02-28T16:57:37;33.03;;;17.67;;
52534;SDS011;38443;53.164;5.802;2024-02-28T17:02:33;27.52;;;16.70;;
52534;SDS011;38443;53.164;5.802;2024-02-28T17:07:24;30.85;;;16.63;;
52534;SDS011;38443;53.164;5.802;2024-02-28T17:12:14;34.45;;;16.67;;
52534;SDS011;38443;53.164;5.802;2024-02-28T17:14:39;30.42;;;16.42;;
52534;SDS011;38443;53.164;5.802;2024-02-28T17:17:05;32.50;;;16.55;;
52534;SDS011;38443;53.164;5.802;2024-02-28T17:21:55;36.40;;;16.97;;
52534;SDS011;38443;53.164;5.802;2024-02-28T17:26:45;32.23;;;16.80;;
52534;SDS011;38443;53.164;5.802;2024-02-28T17:29:11;36.00;;;17.10;;
52534;SDS011;38443;53.164;5.802;2024-02-28T17:31:36;30.65;;;16.55;;
52534;SDS011;38443;53.164;5.802;2024-02-28T17:36:27;34.45;;;15.80;;
52534;SDS011;38443;53.164;5.802;2024-02-28T17:38:52;31.80;;;18.57;;
52534;SDS011;38443;53.164;5.802;2024-02-28T17:43:43;38.08;;;18.52;;
52534;SDS011;38443;53.164;5.802;2024-02-28T17:46:08;40.45;;;19.85;;
52534;SDS011;38443;53.164;5.802;2024-02-28T17:51:00;40.47;;;19.13;;
52534;SDS011;38443;53.164;5.802;2024-02-28T17:55:51;40.20;;;19.95;;
52534;SDS011;38443;53.164;5.802;2024-02-28T18:00:41;38.20;;;20.08;;
52534;SDS011;38443;53.164;5.802;2024-02-28T18:03:11;41.40;;;21.25;;
52534;SDS011;38443;53.164;5.802;2024-02-28T18:08:02;38.28;;;19.45;;
52534;SDS011;38443;53.164;5.802;2024-02-28T18:12:53;35.50;;;19.38;;
52534;SDS011;38443;53.164;5.802;2024-02-28T18:15:19;39.38;;;20.95;;
52534;SDS011;38443;53.164;5.802;2024-02-28T18:20:09;41.57;;;21.63;;
52534;SDS011;38443;53.164;5.802;2024-02-28T18:22:35;41.35;;;20.45;;
52534;SDS011;38443;53.164;5.802;2024-02-28T18:25:00;42.28;;;20.35;;
52534;SDS011;38443;53.164;5.802;2024-02-28T18:27:26;48.00;;;22.15;;
52534;SDS011;38443;53.164;5.802;2024-02-28T18:32:16;41.37;;;20.17;;
52534;SDS011;38443;53.164;5.802;2024-02-28T18:34:42;38.00;;;20.67;;
52534;SDS011;38443;53.164;5.802;2024-02-28T18:39:32;40.57;;;22.80;;
52534;SDS011;38443;53.164;5.802;2024-02-28T18:41:57;44.03;;;22.13;;
52534;SDS011;38443;53.164;5.802;2024-02-28T18:44:23;34.50;;;19.63;;
52534;SDS011;38443;53.164;5.802;2024-02-28T18:49:15;37.78;;;20.17;;
52534;SDS011;38443;53.164;5.802;2024-02-28T18:54:05;40.13;;;20.27;;
52534;SDS011;38443;53.164;5.802;2024-02-28T18:56:31;43.40;;;21.73;;
52534;SDS011;38443;53.164;5.802;2024-02-28T18:58:56;43.05;;;21.60;;
52534;SDS011;38443;53.164;5.802;2024-02-28T19:01:21;39.50;;;20.83;;
52534;SDS011;38443;53.164;5.802;2024-02-28T19:06:12;42.27;;;19.77;;
52534;SDS011;38443;53.164;5.802;2024-02-28T19:08:37;41.25;;;20.85;;
52534;SDS011;38443;53.164;5.802;2024-02-28T19:11:03;40.22;;;20.45;;
52534;SDS011;38443;53.164;5.802;2024-02-28T19:13:29;39.13;;;21.70;;
52534;SDS011;38443;53.164;5.802;2024-02-28T19:18:21;39.87;;;21.13;;
52534;SDS011;38443;53.164;5.802;2024-02-28T19:20:46;41.43;;;20.93;;
52534;SDS011;38443;53.164;5.802;2024-02-28T19:23:13;39.92;;;21.20;;
52534;SDS011;38443;53.164;5.802;2024-02-28T19:28:03;38.50;;;20.17;;
52534;SDS011;38443;53.164;5.802;2024-02-28T19:30:29;36.83;;;19.85;;
52534;SDS011;38443;53.164;5.802;2024-02-28T19:35:20;42.15;;;20.98;;
52534;SDS011;38443;53.164;5.802;2024-02-28T19:40:11;41.63;;;20.87;;
52534;SDS011;38443;53.164;5.802;2024-02-28T19:42:37;45.78;;;20.70;;
52534;SDS011;38443;53.164;5.802;2024-02-28T19:45:06;40.00;;;20.48;;
52534;SDS011;38443;53.164;5.802;2024-02-28T19:47:32;45.95;;;22.15;;
52534;SDS011;38443;53.164;5.802;2024-02-28T21:58:05;33.70;;;15.20;;
52534;SDS011;38443;53.164;5.802;2024-02-28T22:02:55;35.15;;;17.75;;
52534;SDS011;38443;53.164;5.802;2024-02-28T22:07:47;33.28;;;17.95;;
52534;SDS011;38443;53.164;5.802;2024-02-28T22:10:12;29.50;;;15.17;;
52534;SDS011;38443;53.164;5.802;2024-02-28T22:15:02;34.08;;;16.58;;
52534;SDS011;38443;53.164;5.802;2024-02-28T22:17:28;31.48;;;16.30;;
52534;SDS011;38443;53.164;5.802;2024-02-28T22:22:19;31.80;;;16.33;;
52534;SDS011;38443;53.164;5.802;2024-02-28T22:24:44;34.50;;;15.85;;
52534;SDS011;38443;53.164;5.802;2024-02-28T22:27:10;28.47;;;16.10;;
52534;SDS011;38443;53.164;5.802;2024-02-28T22:29:35;26.33;;;13.50;;
52534;SDS011;38443;53.164;5.802;2024-02-28T22:32:00;26.67;;;14.63;;
52534;SDS011;38443;53.164;5.802;2024-02-28T22:36:51;23.13;;;14.57;;
52534;SDS011;38443;53.164;5.802;2024-02-28T22:39:17;29.20;;;14.63;;
52534;SDS011;38443;53.164;5.802;2024-02-28T22:44:07;30.75;;;15.13;;
52534;SDS011;38443;53.164;5.802;2024-02-28T22:48:57;26.50;;;12.98;;
52534;SDS011;38443;53.164;5.802;2024-02-28T22:51:28;24.88;;;13.98;;
52534;SDS011;38443;53.164;5.802;2024-02-28T22:56:18;30.45;;;15.52;;
52534;SDS011;38443;53.164;5.802;2024-02-28T23:01:08;27.00;;;14.10;;
52534;SDS011;38443;53.164;5.802;2024-02-28T23:05:59;29.08;;;14.90;;
52534;SDS011;38443;53.164;5.802;2024-02-28T23:10:50;28.53;;;14.70;;
52534;SDS011;38443;53.164;5.802;2024-02-28T23:15:40;25.52;;;14.80;;
52534;SDS011;38443;53.164;5.802;2024-02-28T23:20:31;27.85;;;14.10;;
52534;SDS011;38443;53.164;5.802;2024-02-28T23:23:00;27.85;;;14.98;;
52534;SDS011;38443;53.164;5.802;2024-02-28T23:27:52;20.43;;;12.37;;
52534;SDS011;38443;53.164;5.802;2024-02-28T23:30:17;25.45;;;14.32;;
52534;SDS011;38443;53.164;5.802;2024-02-28T23:35:08;24.95;;;13.23;;
52534;SDS011;38443;53.164;5.802;2024-02-28T23:39:58;27.57;;;13.63;;
52534;SDS011;38443;53.164;5.802;2024-02-28T23:42:23;26.57;;;14.33;;
52534;SDS011;38443;53.164;5.802;2024-02-28T23:44:52;23.47;;;12.40;;
52534;SDS011;38443;53.164;5.802;2024-02-28T23:47:17;26.27;;;13.60;;
52534;SDS011;38443;53.164;5.802;2024-02-28T23:52:07;26.25;;;12.65;;
52534;SDS011;38443;53.164;5.802;2024-02-28T23:56:58;23.98;;;13.27;;
52534;SDS011;38443;53.164;5.802;2024-02-28T23:59:25;24.60;;;12.32;;
